sensor_id;sensor_type;location;lat;lon;timestamp;pressure;altitude;pressure_sealevel;temperature;humidity
62038;BME280;47991;42.974;12.082;2023-04-01T00:02:53;96910.71;;;11.53;80.42
62038;BME280;47991;42.974;12.082;2023-04-01T00:05:32;96910.44;;;11.55;80.29
62038;BME280;47991;42.974;12.082;2023-04-01T00:08:40;96906.78;;;11.54;80.54
62038;BME280;47991;42.974;12.082;2023-04-01T00:11:27;96901.63;;;11.50;80.79
62038;BME280;47991;42.974;12.082;2023-04-01T00:17:03;96899.54;;;11.54;80.40
62038;BME280;47991;42.974;12.082;2023-04-01T00:19:42;96895.69;;;11.56;80.45
62038;BME280;47991;42.974;12.082;2023-04-01T00:22:19;96892.91;;;11.55;80.22
62038;BME280;47991;42.974;12.082;2023-04-01T00:25:11;96893.67;;;11.54;80.74
62038;BME280;47991;42.974;12.082;2023-04-01T00:27:48;96893.67;;;11.58;80.04
62038;BME280;47991;42.974;12.082;2023-04-01T00:30:38;96885.84;;;11.55;80.56
62038;BME280;47991;42.974;12.082;2023-04-01T00:33:24;96878.49;;;11.57;80.67
62038;BME280;47991;42.974;12.082;2023-04-01T00:35:53;96878.00;;;11.52;81.28
62038;BME280;47991;42.974;12.082;2023-04-01T00:38:24;96871.88;;;11.58;80.97
62038;BME280;47991;42.974;12.082;2023-04-01T00:40:57;96862.12;;;11.63;80.65
62038;BME280;47991;42.974;12.082;2023-04-01T00:43:33;96857.94;;;11.62;80.83
62038;BME280;47991;42.974;12.082;2023-04-01T00:46:06;96851.44;;;11.64;80.78
62038;BME280;47991;42.974;12.082;2023-04-01T00:48:47;96851.33;;;11.63;80.81
62038;BME280;47991;42.974;12.082;2023-04-01T00:51:27;96855.02;;;11.67;80.30
62038;BME280;47991;42.974;12.082;2023-04-01T00:54:00;96853.05;;;11.71;79.88
62038;BME280;47991;42.974;12.082;2023-04-01T00:56:45;96855.37;;;11.74;79.65
62038;BME280;47991;42.974;12.082;2023-04-01T00:59:21;96856.88;;;11.76;79.43
62038;BME280;47991;42.974;12.082;2023-04-01T01:01:53;96863.52;;;11.77;79.33
62038;BME280;47991;42.974;12.082;2023-04-01T01:04:37;96868.25;;;11.83;78.97
62038;BME280;47991;42.974;12.082;2023-04-01T01:07:18;96863.98;;;11.87;78.48
62038;BME280;47991;42.974;12.082;2023-04-01T01:16:10;96860.75;;;11.92;78.27
62038;BME280;47991;42.974;12.082;2023-04-01T01:24:49;96857.64;;;11.90;78.02
62038;BME280;47991;42.974;12.082;2023-04-01T01:27:24;96856.70;;;11.87;78.13
62038;BME280;47991;42.974;12.082;2023-04-01T01:30:35;96864.30;;;11.87;77.90
62038;BME280;47991;42.974;12.082;2023-04-01T01:35:58;96849.45;;;11.84;77.40
62038;BME280;47991;42.974;12.082;2023-04-01T01:39:17;96832.50;;;11.86;76.84
62038;BME280;47991;42.974;12.082;2023-04-01T01:42:35;96833.81;;;11.85;76.82
62038;BME280;47991;42.974;12.082;2023-04-01T01:45:58;96828.63;;;11.82;76.54
62038;BME280;47991;42.974;12.082;2023-04-01T01:48:54;96826.16;;;11.82;75.83
62038;BME280;47991;42.974;12.082;2023-04-01T01:51:43;96826.41;;;11.84;75.25
62038;BME280;47991;42.974;12.082;2023-04-01T01:54:21;96824.08;;;11.88;74.16
62038;BME280;47991;42.974;12.082;2023-04-01T01:57:15;96830.39;;;11.97;74.06
62038;BME280;47991;42.974;12.082;2023-04-01T01:59:52;96829.24;;;11.92;74.05
62038;BME280;47991;42.974;12.082;2023-04-01T02:02:46;96833.95;;;11.89;74.06
62038;BME280;47991;42.974;12.082;2023-04-01T02:05:29;96832.33;;;11.90;73.74
62038;BME280;47991;42.974;12.082;2023-04-01T02:08:19;96827.15;;;11.90;73.68
62038;BME280;47991;42.974;12.082;2023-04-01T02:11:04;96825.06;;;11.94;71.87
62038;BME280;47991;42.974;12.082;2023-04-01T02:14:02;96827.77;;;11.97;72.62
62038;BME280;47991;42.974;12.082;2023-04-01T02:19:18;96838.31;;;11.98;72.23
62038;BME280;47991;42.974;12.082;2023-04-01T02:22:01;96839.83;;;12.00;71.59
62038;BME280;47991;42.974;12.082;2023-04-01T02:24:35;96845.52;;;11.99;72.32
62038;BME280;47991;42.974;12.082;2023-04-01T02:27:08;96842.98;;;11.96;72.25
62038;BME280;47991;42.974;12.082;2023-04-01T02:29:54;96837.64;;;11.97;71.72
62038;BME280;47991;42.974;12.082;2023-04-01T02:32:40;96842.06;;;11.97;71.04
62038;BME280;47991;42.974;12.082;2023-04-01T02:35:14;96836.35;;;11.95;71.18
62038;BME280;47991;42.974;12.082;2023-04-01T02:37:43;96837.08;;;11.98;70.38
62038;BME280;47991;42.974;12.082;2023-04-01T02:40:44;96840.67;;;11.93;68.78
62038;BME280;47991;42.974;12.082;2023-04-01T02:43:13;96840.95;;;11.91;67.48
62038;BME280;47991;42.974;12.082;2023-04-01T02:45:43;96834.66;;;11.93;68.40
62038;BME280;47991;42.974;12.082;2023-04-01T02:48:19;96833.98;;;11.92;67.29
62038;BME280;47991;42.974;12.082;2023-04-01T02:50:48;96833.80;;;11.88;67.60
62038;BME280;47991;42.974;12.082;2023-04-01T02:53:16;96829.27;;;11.87;67.33
62038;BME280;47991;42.974;12.082;2023-04-01T02:55:42;96822.05;;;11.82;66.49
62038;BME280;47991;42.974;12.082;2023-04-01T02:58:09;96825.98;;;11.81;65.47
62038;BME280;47991;42.974;12.082;2023-04-01T03:00:36;96828.41;;;11.79;64.56
62038;BME280;47991;42.974;12.082;2023-04-01T03:03:14;96837.23;;;11.79;64.41
62038;BME280;47991;42.974;12.082;2023-04-01T03:05:42;96837.55;;;11.73;65.03
62038;BME280;47991;42.974;12.082;2023-04-01T03:08:19;96835.02;;;11.71;65.10
62038;BME280;47991;42.974;12.082;2023-04-01T03:10:49;96828.69;;;11.73;64.28
62038;BME280;47991;42.974;12.082;2023-04-01T03:13:20;96838.95;;;11.70;63.99
62038;BME280;47991;42.974;12.082;2023-04-01T03:15:49;96838.28;;;11.65;64.09
62038;BME280;47991;42.974;12.082;2023-04-01T03:18:21;96838.19;;;11.63;63.86
62038;BME280;47991;42.974;12.082;2023-04-01T03:21:23;96837.39;;;11.61;63.67
62038;BME280;47991;42.974;12.082;2023-04-01T03:24:12;96826.52;;;11.56;63.35
62038;BME280;47991;42.974;12.082;2023-04-01T03:26:53;96824.58;;;11.55;63.54
62038;BME280;47991;42.974;12.082;2023-04-01T03:29:25;96826.52;;;11.52;63.23
62038;BME280;47991;42.974;12.082;2023-04-01T03:31:56;96829.39;;;11.51;63.87
62038;BME280;47991;42.974;12.082;2023-04-01T03:34:38;96828.92;;;11.50;63.16
62038;BME280;47991;42.974;12.082;2023-04-01T03:37:09;96819.79;;;11.52;62.65
62038;BME280;47991;42.974;12.082;2023-04-01T03:39:42;96823.58;;;11.50;62.66
62038;BME280;47991;42.974;12.082;2023-04-01T03:42:20;96829.57;;;11.47;63.00
62038;BME280;47991;42.974;12.082;2023-04-01T03:44:50;96830.55;;;11.41;63.10
62038;BME280;47991;42.974;12.082;2023-04-01T03:47:16;96827.71;;;11.37;63.48
62038;BME280;47991;42.974;12.082;2023-04-01T03:52:36;96828.30;;;11.25;62.68
62038;BME280;47991;42.974;12.082;2023-04-01T03:55:14;96834.77;;;11.19;63.16
62038;BME280;47991;42.974;12.082;2023-04-01T03:57:45;96833.55;;;11.18;63.64
62038;BME280;47991;42.974;12.082;2023-04-01T04:00:15;96831.61;;;11.18;63.83
62038;BME280;47991;42.974;12.082;2023-04-01T04:02:46;96828.51;;;11.17;63.94
62038;BME280;47991;42.974;12.082;2023-04-01T04:05:16;96824.10;;;11.12;63.81
62038;BME280;47991;42.974;12.082;2023-04-01T04:07:46;96828.92;;;11.07;64.20
62038;BME280;47991;42.974;12.082;2023-04-01T04:10:26;96828.67;;;11.05;63.96
62038;BME280;47991;42.974;12.082;2023-04-01T04:12:52;96827.73;;;10.98;64.34
62038;BME280;47991;42.974;12.082;2023-04-01T04:15:23;96829.31;;;10.98;64.43
62038;BME280;47991;42.974;12.082;2023-04-01T04:18:25;96835.06;;;10.93;64.42
62038;BME280;47991;42.974;12.082;2023-04-01T04:21:01;96830.13;;;10.85;64.26
62038;BME280;47991;42.974;12.082;2023-04-01T04:23:33;96833.90;;;10.79;64.30
62038;BME280;47991;42.974;12.082;2023-04-01T04:26:18;96843.41;;;10.72;64.64
62038;BME280;47991;42.974;12.082;2023-04-01T04:28:56;96849.38;;;10.65;64.40
62038;BME280;47991;42.974;12.082;2023-04-01T04:31:24;96844.48;;;10.59;64.53
62038;BME280;47991;42.974;12.082;2023-04-01T04:33:52;96841.96;;;10.52;64.82
62038;BME280;47991;42.974;12.082;2023-04-01T04:36:21;96837.52;;;10.40;65.01
62038;BME280;47991;42.974;12.082;2023-04-01T04:39:00;96835.13;;;10.29;65.05
62038;BME280;47991;42.974;12.082;2023-04-01T04:41:37;96831.98;;;10.20;65.33
62038;BME280;47991;42.974;12.082;2023-04-01T04:44:33;96824.65;;;10.09;65.84
62038;BME280;47991;42.974;12.082;2023-04-01T04:47:10;96829.04;;;9.93;66.10
62038;BME280;47991;42.974;12.082;2023-04-01T04:49:43;96836.58;;;9.81;66.59
62038;BME280;47991;42.974;12.082;2023-04-01T04:52:11;96843.70;;;9.75;66.75
62038;BME280;47991;42.974;12.082;2023-04-01T04:54:38;96842.02;;;9.73;66.72
62038;BME280;47991;42.974;12.082;2023-04-01T04:57:05;96844.83;;;9.69;66.85
62038;BME280;47991;42.974;12.082;2023-04-01T04:59:41;96842.60;;;9.71;66.84
62038;BME280;47991;42.974;12.082;2023-04-01T05:02:12;96855.73;;;9.65;66.89
62038;BME280;47991;42.974;12.082;2023-04-01T05:04:46;96864.19;;;9.52;67.08
62038;BME280;47991;42.974;12.082;2023-04-01T05:07:47;96870.52;;;9.34;67.60
62038;BME280;47991;42.974;12.082;2023-04-01T05:10:16;96872.59;;;9.26;67.82
62038;BME280;47991;42.974;12.082;2023-04-01T05:12:53;96879.53;;;9.29;67.94
62038;BME280;47991;42.974;12.082;2023-04-01T05:15:38;96880.94;;;9.52;67.48
62038;BME280;47991;42.974;12.082;2023-04-01T05:18:10;96882.67;;;9.67;67.11
62038;BME280;47991;42.974;12.082;2023-04-01T05:20:53;96884.98;;;9.62;67.19
62038;BME280;47991;42.974;12.082;2023-04-01T05:26:48;96895.30;;;9.36;67.79
62038;BME280;47991;42.974;12.082;2023-04-01T05:29:17;96898.29;;;9.22;68.07
62038;BME280;47991;42.974;12.082;2023-04-01T05:31:52;96905.48;;;9.13;68.37
62038;BME280;47991;42.974;12.082;2023-04-01T05:34:21;96911.74;;;9.06;68.73
62038;BME280;47991;42.974;12.082;2023-04-01T05:37:07;96917.42;;;9.00;68.97
62038;BME280;47991;42.974;12.082;2023-04-01T05:39:36;96922.30;;;8.92;69.14
62038;BME280;47991;42.974;12.082;2023-04-01T05:42:09;96921.59;;;8.87;69.27
62038;BME280;47991;42.974;12.082;2023-04-01T05:44:42;96922.52;;;8.81;69.47
62038;BME280;47991;42.974;12.082;2023-04-01T05:47:36;96923.89;;;8.77;69.51
62038;BME280;47991;42.974;12.082;2023-04-01T05:50:23;96921.13;;;8.90;70.23
62038;BME280;47991;42.974;12.082;2023-04-01T05:53:07;96920.20;;;9.40;69.16
62038;BME280;47991;42.974;12.082;2023-04-01T05:55:36;96918.77;;;9.69;68.68
62038;BME280;47991;42.974;12.082;2023-04-01T05:58:10;96921.14;;;9.62;68.78
62038;BME280;47991;42.974;12.082;2023-04-01T06:00:44;96923.30;;;9.56;68.95
62038;BME280;47991;42.974;12.082;2023-04-01T06:03:13;96921.31;;;9.53;69.30
62038;BME280;47991;42.974;12.082;2023-04-01T06:05:45;96922.98;;;9.60;69.38
62038;BME280;47991;42.974;12.082;2023-04-01T06:08:20;96929.38;;;9.68;69.18
62038;BME280;47991;42.974;12.082;2023-04-01T06:20:12;96945.65;;;9.95;69.23
62038;BME280;47991;42.974;12.082;2023-04-01T06:26:02;96947.61;;;10.08;68.97
62038;BME280;47991;42.974;12.082;2023-04-01T06:32:40;96941.27;;;11.38;67.70
62038;BME280;47991;42.974;12.082;2023-04-01T06:35:43;96947.18;;;11.69;66.95
62038;BME280;47991;42.974;12.082;2023-04-01T06:38:46;96945.21;;;12.33;66.26
62038;BME280;47991;42.974;12.082;2023-04-01T06:55:41;96951.27;;;13.73;62.07
62038;BME280;47991;42.974;12.082;2023-04-01T06:58:46;96956.69;;;13.44;63.15
62038;BME280;47991;42.974;12.082;2023-04-01T07:01:38;96962.63;;;13.29;63.93
62038;BME280;47991;42.974;12.082;2023-04-01T07:07:54;96974.61;;;12.91;63.07
62038;BME280;47991;42.974;12.082;2023-04-01T07:17:39;96990.92;;;13.48;63.01
62038;BME280;47991;42.974;12.082;2023-04-01T07:20:32;96992.81;;;13.96;62.41
62038;BME280;47991;42.974;12.082;2023-04-01T07:23:26;96989.65;;;14.31;60.27
62038;BME280;47991;42.974;12.082;2023-04-01T07:26:27;96988.86;;;14.42;60.65
62038;BME280;47991;42.974;12.082;2023-04-01T07:29:16;96991.63;;;14.56;60.13
62038;BME280;47991;42.974;12.082;2023-04-01T07:35:41;97003.73;;;14.08;60.22
62038;BME280;47991;42.974;12.082;2023-04-01T07:45:15;97006.96;;;14.17;59.11
62038;BME280;47991;42.974;12.082;2023-04-01T07:48:06;97012.29;;;14.07;58.84
62038;BME280;47991;42.974;12.082;2023-04-01T07:57:46;97019.87;;;14.41;57.49
62038;BME280;47991;42.974;12.082;2023-04-01T08:01:11;97015.91;;;14.58;56.94
62038;BME280;47991;42.974;12.082;2023-04-01T08:07:17;97010.28;;;14.91;54.14
62038;BME280;47991;42.974;12.082;2023-04-01T08:11:03;97013.81;;;14.95;55.13
62038;BME280;47991;42.974;12.082;2023-04-01T08:20:57;96997.53;;;15.57;53.33
62038;BME280;47991;42.974;12.082;2023-04-01T08:23:38;96994.83;;;15.57;53.62
62038;BME280;47991;42.974;12.082;2023-04-01T08:26:35;96993.60;;;15.45;53.71
62038;BME280;47991;42.974;12.082;2023-04-01T08:32:28;96988.13;;;15.62;52.41
62038;BME280;47991;42.974;12.082;2023-04-01T08:38:52;96987.00;;;15.95;51.50
62038;BME280;47991;42.974;12.082;2023-04-01T08:45:04;96980.48;;;16.31;51.32
62038;BME280;47991;42.974;12.082;2023-04-01T08:47:20;96977.61;;;16.39;51.97
62038;BME280;47991;42.974;12.082;2023-04-01T09:18:20;96984.45;;;17.02;48.00
62038;BME280;47991;42.974;12.082;2023-04-01T09:30:32;96994.44;;;16.49;46.75
62038;BME280;47991;42.974;12.082;2023-04-01T09:49:17;96994.10;;;16.68;43.13
62038;BME280;47991;42.974;12.082;2023-04-01T09:52:24;96993.50;;;16.36;44.85
62038;BME280;47991;42.974;12.082;2023-04-01T10:04:08;96983.04;;;17.20;41.96
62038;BME280;47991;42.974;12.082;2023-04-01T10:34:27;96942.35;;;19.44;40.93
62038;BME280;47991;42.974;12.082;2023-04-01T10:36:54;96931.24;;;19.72;39.34
62038;BME280;47991;42.974;12.082;2023-04-01T10:45:49;96923.64;;;19.78;40.13
62038;BME280;47991;42.974;12.082;2023-04-01T11:21:32;96915.74;;;20.10;38.21
62038;BME280;47991;42.974;12.082;2023-04-01T11:24:53;96912.16;;;19.69;37.97
62038;BME280;47991;42.974;12.082;2023-04-01T11:28:18;96910.52;;;19.43;38.90
62038;BME280;47991;42.974;12.082;2023-04-01T11:33:54;96902.57;;;19.77;38.66
62038;BME280;47991;42.974;12.082;2023-04-01T11:42:51;96899.12;;;20.15;38.46
62038;BME280;47991;42.974;12.082;2023-04-01T11:49:02;96893.02;;;19.47;39.23
62038;BME280;47991;42.974;12.082;2023-04-01T11:58:15;96885.17;;;20.54;38.17
62038;BME280;47991;42.974;12.082;2023-04-01T12:00:56;96874.92;;;20.73;36.83
62038;BME280;47991;42.974;12.082;2023-04-01T12:15:05;96864.55;;;19.79;36.83
62038;BME280;47991;42.974;12.082;2023-04-01T12:23:59;96860.94;;;19.38;35.29
62038;BME280;47991;42.974;12.082;2023-04-01T12:30:06;96851.67;;;19.83;36.27
62038;BME280;47991;42.974;12.082;2023-04-01T12:38:30;96848.73;;;19.77;34.12
62038;BME280;47991;42.974;12.082;2023-04-01T12:44:00;96834.63;;;20.29;34.14
62038;BME280;47991;42.974;12.082;2023-04-01T12:55:53;96823.98;;;20.28;32.48
62038;BME280;47991;42.974;12.082;2023-04-01T13:10:36;96807.87;;;21.15;30.98
62038;BME280;47991;42.974;12.082;2023-04-01T13:15:58;96807.91;;;21.44;31.12
62038;BME280;47991;42.974;12.082;2023-04-01T13:18:54;96802.75;;;21.49;31.10
62038;BME280;47991;42.974;12.082;2023-04-01T13:43:21;96801.20;;;21.24;31.18
62038;BME280;47991;42.974;12.082;2023-04-01T13:49:22;96798.27;;;20.87;32.54
62038;BME280;47991;42.974;12.082;2023-04-01T13:52:25;96798.66;;;20.48;30.56
62038;BME280;47991;42.974;12.082;2023-04-01T14:21:39;96765.88;;;21.21;31.12
62038;BME280;47991;42.974;12.082;2023-04-01T14:27:41;96760.92;;;21.01;30.90
62038;BME280;47991;42.974;12.082;2023-04-01T14:30:29;96762.48;;;21.37;30.58
62038;BME280;47991;42.974;12.082;2023-04-01T14:36:24;96760.35;;;21.16;31.46
62038;BME280;47991;42.974;12.082;2023-04-01T14:39:54;96753.58;;;20.80;32.79
62038;BME280;47991;42.974;12.082;2023-04-01T14:51:30;96736.91;;;20.24;31.95
62038;BME280;47991;42.974;12.082;2023-04-01T14:54:31;96735.10;;;20.33;32.50
62038;BME280;47991;42.974;12.082;2023-04-01T14:57:11;96734.41;;;20.39;32.38
62038;BME280;47991;42.974;12.082;2023-04-01T14:59:55;96734.52;;;20.33;31.02
62038;BME280;47991;42.974;12.082;2023-04-01T15:02:56;96735.14;;;20.11;31.45
62038;BME280;47991;42.974;12.082;2023-04-01T15:21:06;96740.48;;;19.72;32.77
62038;BME280;47991;42.974;12.082;2023-04-01T15:23:53;96742.27;;;19.52;32.71
62038;BME280;47991;42.974;12.082;2023-04-01T15:32:27;96735.21;;;18.96;34.92
62038;BME280;47991;42.974;12.082;2023-04-01T15:40:53;96738.31;;;18.49;36.44
62038;BME280;47991;42.974;12.082;2023-04-01T15:46:36;96741.19;;;18.23;36.96
62038;BME280;47991;42.974;12.082;2023-04-01T15:49:33;96744.56;;;18.14;37.21
62038;BME280;47991;42.974;12.082;2023-04-01T15:55:39;96739.17;;;18.05;37.77
62038;BME280;47991;42.974;12.082;2023-04-01T15:58:46;96744.91;;;17.95;38.12
62038;BME280;47991;42.974;12.082;2023-04-01T16:11:24;96739.80;;;17.39;38.75
62038;BME280;47991;42.974;12.082;2023-04-01T16:13:38;96742.11;;;17.32;39.25
62038;BME280;47991;42.974;12.082;2023-04-01T16:24:00;96743.66;;;17.16;39.55
62038;BME280;47991;42.974;12.082;2023-04-01T16:27:06;96750.08;;;17.18;39.51
62038;BME280;47991;42.974;12.082;2023-04-01T16:35:42;96759.24;;;16.89;40.43
62038;BME280;47991;42.974;12.082;2023-04-01T16:38:24;96758.25;;;16.77;40.79
62038;BME280;47991;42.974;12.082;2023-04-01T16:43:56;96760.49;;;16.53;41.02
62038;BME280;47991;42.974;12.082;2023-04-01T16:46:48;96762.55;;;16.43;41.00
62038;BME280;47991;42.974;12.082;2023-04-01T16:55:03;96769.31;;;16.22;41.98
62038;BME280;47991;42.974;12.082;2023-04-01T16:57:50;96770.55;;;16.12;42.65
62038;BME280;47991;42.974;12.082;2023-04-01T17:03:55;96771.50;;;15.87;43.67
62038;BME280;47991;42.974;12.082;2023-04-01T17:06:38;96781.48;;;15.75;43.94
62038;BME280;47991;42.974;12.082;2023-04-01T17:09:59;96787.52;;;15.62;44.35
62038;BME280;47991;42.974;12.082;2023-04-01T17:16:23;96797.11;;;15.40;42.73
62038;BME280;47991;42.974;12.082;2023-04-01T17:19:38;96806.65;;;15.24;42.00
